Time;durP1;ratioP1;P1;durP2;ratioP2;P2;SDS_P1;SDS_P2;PMS_P1;PMS_P2;Temp;Humidity;BMP_temperature;BMP_pressure;BME280_temperature;BME280_humidity;BME280_pressure;Samples;Min_cycle;Max_cycle;Signal;HPM_P1;HPM_P2
2023/08/21 00:01:01;;;;;;;110.67;3.10;;;27.60;44.00;;;;;;5032927;28;20659;-83
2023/08/21 00:03:27;;;;;;;112.50;3.53;;;27.50;44.90;;;;;;5033184;28;20536;-83
2023/08/21 00:05:53;;;;;;;110.10;3.00;;;27.50;44.40;;;;;;5032491;28;20550;-83
2023/08/21 00:08:18;;;;;;;111.07;3.50;;;27.60;44.30;;;;;;5032911;28;20229;-83
2023/08/21 00:10:44;;;;;;;117.63;3.70;;;27.70;43.20;;;;;;5033051;28;20180;-83
2023/08/21 00:13:09;;;;;;;111.60;3.60;;;27.80;43.10;;;;;;5032906;28;20259;-83
2023/08/21 00:15:37;;;;;;;112.10;3.97;;;27.80;43.00;;;;;;5014797;28;20695;-83
2023/08/21 00:18:02;;;;;;;111.30;3.60;;;27.50;45.10;;;;;;5032642;28;20172;-83
2023/08/21 00:20:28;;;;;;;111.53;3.50;;;27.40;44.70;;;;;;5032935;28;20498;-83
2023/08/21 00:22:53;;;;;;;110.77;3.50;;;27.50;44.50;;;;;;5014146;28;20177;-83
2023/08/21 00:25:21;;;;;;;110.90;3.60;;;27.40;44.80;;;;;;5032399;28;20226;-83
2023/08/21 00:27:47;;;;;;;110.50;3.37;;;27.20;45.30;;;;;;5032961;28;20176;-83
2023/08/21 00:30:14;;;;;;;111.00;3.53;;;;;;;;;;5033094;28;20832;-83
2023/08/21 00:32:41;;;;;;;110.20;2.90;;;27.10;47.10;;;;;;5032538;28;20187;-83
2023/08/21 00:35:07;;;;;;;110.57;3.10;;;;;;;;;;5036525;28;20431;-83
2023/08/21 00:37:32;;;;;;;111.30;3.00;;;27.30;45.20;;;;;;5032999;28;20418;-83
2023/08/21 00:39:58;;;;;;;111.33;3.60;;;27.30;44.90;;;;;;5032444;28;21000;-83
2023/08/21 00:42:24;;;;;;;111.53;3.50;;;27.20;45.90;;;;;;5032465;28;20187;-83
2023/08/21 00:44:49;;;;;;;111.77;3.77;;;;;;;;;;5031969;28;20338;-83
2023/08/21 00:47:15;;;;;;;110.87;2.90;;;;;;;;;;5032446;28;20180;-83
2023/08/21 00:49:42;;;;;;;111.07;3.37;;;26.90;47.00;;;;;;5032343;28;20486;-83
2023/08/21 00:52:12;;;;;;;111.57;3.60;;;26.90;48.10;;;;;;5032236;28;20400;-83
2023/08/21 00:54:38;;;;;;;111.30;3.67;;;26.80;47.00;;;;;;5032225;28;20431;-83
2023/08/21 00:57:04;;;;;;;112.17;4.30;;;27.00;46.10;;;;;;5032054;28;20462;-83
2023/08/21 00:59:30;;;;;;;111.33;3.70;;;27.00;46.10;;;;;;5032069;28;20199;-83
2023/08/21 01:01:56;;;;;;;115.00;4.43;;;;;;;;;;5031968;28;20416;-83
2023/08/21 01:04:22;;;;;;;111.27;3.40;;;;;;;;;;5031799;28;20172;-83
2023/08/21 01:06:51;;;;;;;111.40;3.40;;;26.80;47.40;;;;;;5031693;28;20422;-83
2023/08/21 01:09:41;;;;;;;111.40;3.67;;;27.00;46.50;;;;;;5032265;28;20794;-83
2023/08/21 01:12:33;;;;;;;111.80;3.70;;;27.10;46.00;;;;;;5031886;28;20404;-83
2023/08/21 01:15:03;;;;;;;112.00;3.73;;;26.90;47.00;;;;;;5020247;28;20957;-83
2023/08/21 01:17:30;;;;;;;111.60;3.70;;;26.80;47.60;;;;;;5031997;28;20420;-83
2023/08/21 01:19:56;;;;;;;111.27;3.60;;;26.80;48.30;;;;;;5031850;28;20407;-83
2023/08/21 01:22:34;;;;;;;111.00;3.60;;;26.80;47.00;;;;;;5031659;28;20438;-83
2023/08/21 01:25:00;;;;;;;112.20;3.63;;;;;;;;;;5031663;28;20785;-83
2023/08/21 01:27:26;;;;;;;111.13;3.30;;;;;;;;;;5031753;28;20486;-83
2023/08/21 01:29:52;;;;;;;111.60;3.70;;;26.70;46.90;;;;;;5012620;28;20945;-83
2023/08/21 01:32:31;;;;;;;111.90;4.10;;;26.90;47.00;;;;;;5019655;28;20501;-83
2023/08/21 01:34:58;;;;;;;111.07;3.37;;;26.90;46.80;;;;;;4991503;28;21001;-83
2023/08/21 01:37:26;;;;;;;111.60;3.70;;;26.80;47.00;;;;;;4974744;28;20518;-83
2023/08/21 01:39:52;;;;;;;111.20;3.50;;;26.70;46.90;;;;;;4992186;28;20417;-83
2023/08/21 01:42:17;;;;;;;111.70;3.40;;;26.70;47.50;;;;;;4992313;28;20419;-83
2023/08/21 01:44:45;;;;;;;112.00;4.30;;;26.80;47.00;;;;;;4994267;28;20205;-83
2023/08/21 01:47:11;;;;;;;111.17;3.50;;;26.80;46.70;;;;;;5004380;28;20181;-83
2023/08/21 01:49:37;;;;;;;112.77;3.80;;;26.90;46.60;;;;;;5021300;28;20415;-83
2023/08/21 01:52:03;;;;;;;111.27;3.23;;;26.80;47.00;;;;;;5025669;28;20916;-83
2023/08/21 01:54:29;;;;;;;110.53;2.90;;;;;;;;;;5011630;28;20173;-83
2023/08/21 01:56:54;;;;;;;110.83;3.40;;;26.70;47.70;;;;;;5011563;28;20203;-83
2023/08/21 01:59:21;;;;;;;111.80;3.60;;;26.60;48.00;;;;;;5011733;28;20466;-83
2023/08/21 02:01:47;;;;;;;111.70;3.57;;;;;;;;;;5011762;28;20173;-83
2023/08/21 02:04:12;;;;;;;112.07;3.73;;;26.50;48.70;;;;;;5011551;28;20422;-83
2023/08/21 02:06:38;;;;;;;113.00;4.27;;;26.40;49.10;;;;;;5030764;28;21010;-83
2023/08/21 02:09:04;;;;;;;111.13;3.40;;;26.30;48.70;;;;;;5013598;28;20214;-83
2023/08/21 02:11:29;;;;;;;111.20;3.27;;;;;;;;;;5031388;28;20208;-83
2023/08/21 02:13:55;;;;;;;111.57;3.63;;;;;;;;;;5031261;28;20184;-83
2023/08/21 02:16:21;;;;;;;111.30;3.50;;;;;;;;;;5031079;28;20993;-83
2023/08/21 02:18:48;;;;;;;111.57;3.30;;;;;;;;;;5036290;28;20441;-83
2023/08/21 02:21:14;;;;;;;112.30;3.73;;;;;;;;;;5031428;28;20498;-83
2023/08/21 02:23:39;;;;;;;111.67;3.53;;;26.30;47.90;;;;;;5031258;28;20403;-83
2023/08/21 02:26:05;;;;;;;111.60;3.23;;;26.20;48.90;;;;;;5030958;28;20822;-83
2023/08/21 02:28:30;;;;;;;111.00;3.20;;;26.20;49.00;;;;;;5031178;28;20169;-83
2023/08/21 02:30:56;;;;;;;111.60;3.23;;;26.30;47.90;;;;;;5031343;28;20562;-83
2023/08/21 02:33:22;;;;;;;112.53;3.83;;;;;;;;;;5030945;28;20179;-83
2023/08/21 02:35:48;;;;;;;111.50;3.40;;;;;;;;;;5030240;28;20215;-83
2023/08/21 02:38:14;;;;;;;111.07;3.13;;;;;;;;;;5031095;28;20442;-83
2023/08/21 02:40:40;;;;;;;111.83;3.67;;;;;;;;;;5031133;28;20409;-83
2023/08/21 02:43:05;;;;;;;111.37;3.43;;;26.20;48.90;;;;;;5032102;28;20471;-83
2023/08/21 02:45:31;;;;;;;111.97;3.80;;;26.10;48.90;;;;;;5032016;28;20445;-83
2023/08/21 02:47:56;;;;;;;111.27;3.57;;;26.10;49.50;;;;;;5035962;28;20635;-83
2023/08/21 02:50:22;;;;;;;111.10;3.30;;;;;;;;;;5034471;28;20218;-83
2023/08/21 02:52:48;;;;;;;113.03;4.13;;;;;;;;;;5034423;28;20518;-83
2023/08/21 02:55:15;;;;;;;112.20;3.97;;;26.10;48.90;;;;;;5033888;28;20438;-83
2023/08/21 02:57:41;;;;;;;111.30;3.47;;;26.30;48.00;;;;;;5034468;28;20407;-83
2023/08/21 03:00:11;;;;;;;112.13;3.60;;;26.20;48.60;;;;;;5034188;28;20791;-83
2023/08/21 03:02:37;;;;;;;111.40;3.50;;;;;;;;;;5034360;28;20181;-83
2023/08/21 03:05:04;;;;;;;111.33;3.53;;;26.20;48.50;;;;;;5033315;28;20449;-83
2023/08/21 03:07:29;;;;;;;111.73;3.70;;;26.30;47.60;;;;;;5034204;28;20430;-83
2023/08/21 03:09:55;;;;;;;111.67;3.60;;;26.20;48.90;;;;;;5034101;28;20407;-83
2023/08/21 03:12:21;;;;;;;113.53;4.20;;;26.00;48.80;;;;;;5034194;28;20184;-83
2023/08/21 03:14:47;;;;;;;112.73;3.87;;;;;;;;;;5033543;28;20201;-83
2023/08/21 03:17:12;;;;;;;111.60;3.53;;;26.00;49.30;;;;;;5033930;28;20291;-83
2023/08/21 03:19:38;;;;;;;113.17;3.50;;;26.00;49.50;;;;;;5033977;28;20573;-83
2023/08/21 03:22:03;;;;;;;111.37;3.40;;;25.90;49.70;;;;;;5033828;28;20203;-83
2023/08/21 03:24:29;;;;;;;111.80;3.67;;;25.80;50.40;;;;;;5033551;28;20169;-83
2023/08/21 03:26:55;;;;;;;116.67;3.60;;;;;;;;;;5015864;28;20188;-83
2023/08/21 03:29:21;;;;;;;112.03;3.80;;;;;;;;;;5033759;28;20596;-83
2023/08/21 03:31:49;;;;;;;112.10;3.90;;;25.80;50.40;;;;;;5033659;28;20415;-83
2023/08/21 03:34:15;;;;;;;113.23;4.50;;;;;;;;;;5033530;28;20430;-83
2023/08/21 03:36:41;;;;;;;111.37;3.40;;;;;;;;;;5033166;28;20553;-83
2023/08/21 03:39:07;;;;;;;112.60;4.03;;;;;;;;;;5033503;28;20486;-83
2023/08/21 03:41:33;;;;;;;113.50;3.80;;;25.70;50.10;;;;;;5033740;28;20527;-83
2023/08/21 03:43:58;;;;;;;112.90;4.50;;;25.80;51.00;;;;;;5033474;28;20776;-83
2023/08/21 03:46:24;;;;;;;111.47;3.60;;;25.90;50.10;;;;;;5033284;28;20205;-83
2023/08/21 03:48:50;;;;;;;111.70;3.50;;;25.80;50.60;;;;;;5033407;28;20176;-83
2023/08/21 03:51:16;;;;;;;111.97;3.50;;;25.80;50.70;;;;;;5015604;28;20183;-83
2023/08/21 03:53:41;;;;;;;111.60;3.23;;;25.80;49.90;;;;;;5033397;28;20410;-82
2023/08/21 03:56:07;;;;;;;115.07;4.23;;;25.70;50.80;;;;;;5033042;28;20215;-83
2023/08/21 03:58:33;;;;;;;116.83;4.57;;;25.80;50.60;;;;;;5032199;28;20238;-83
2023/08/21 04:00:59;;;;;;;111.37;3.23;;;25.70;50.40;;;;;;5033018;28;20778;-83
2023/08/21 04:03:25;;;;;;;111.97;3.47;;;25.70;50.50;;;;;;5033341;28;20411;-83
2023/08/21 04:05:52;;;;;;;112.50;4.00;;;25.70;50.70;;;;;;5032141;28;20241;-83
2023/08/21 04:08:18;;;;;;;111.40;3.33;;;25.80;49.90;;;;;;5033126;28;20465;-83
2023/08/21 04:10:44;;;;;;;112.67;3.77;;;25.80;50.50;;;;;;5033300;28;20784;-83
2023/08/21 04:13:09;;;;;;;112.33;3.80;;;26.00;49.40;;;;;;5032989;28;20187;-83
2023/08/21 04:15:35;;;;;;;111.67;3.50;;;26.10;48.60;;;;;;5032430;28;20225;-83
2023/08/21 04:18:00;;;;;;;112.20;3.73;;;26.00;48.90;;;;;;5032720;28;20177;-83
2023/08/21 04:20:26;;;;;;;111.83;3.47;;;26.00;49.30;;;;;;5032802;28;20632;-83
2023/08/21 04:22:51;;;;;;;113.10;3.70;;;26.00;48.90;;;;;;5032638;28;20215;-83
2023/08/21 04:25:17;;;;;;;112.30;3.67;;;25.80;50.10;;;;;;5032413;28;20242;-83
2023/08/21 04:27:43;;;;;;;111.93;3.83;;;25.70;50.40;;;;;;5033082;28;20647;-83
2023/08/21 04:30:10;;;;;;;111.37;3.27;;;25.70;50.60;;;;;;5032447;28;20279;-83
2023/08/21 04:32:35;;;;;;;111.97;3.87;;;25.60;50.80;;;;;;5032625;28;20215;-83
2023/08/21 04:35:01;;;;;;;111.77;3.60;;;25.70;50.20;;;;;;5031883;28;20478;-83
2023/08/21 04:37:27;;;;;;;112.17;3.90;;;25.70;50.40;;;;;;5032536;28;20203;-83
2023/08/21 04:39:53;;;;;;;111.43;3.47;;;25.80;52.50;;;;;;5014646;28;20172;-83
2023/08/21 04:42:19;;;;;;;111.53;3.50;;;25.60;51.80;;;;;;5032324;28;20183;-83
2023/08/21 04:44:44;;;;;;;112.00;3.33;;;25.50;52.20;;;;;;5031968;28;20441;-83
2023/08/21 04:47:26;;;;;;;111.77;3.40;;;25.50;51.70;;;;;;5032192;28;20202;-83
2023/08/21 04:49:53;;;;;;;111.90;3.67;;;25.50;52.30;;;;;;5032110;28;20551;-83
2023/08/21 04:52:22;;;;;;;111.37;3.23;;;25.50;51.70;;;;;;5014548;28;20428;-83
2023/08/21 04:54:49;;;;;;;111.20;3.27;;;25.60;52.00;;;;;;5031757;28;20814;-83
2023/08/21 04:57:15;;;;;;;111.80;4.10;;;25.60;51.30;;;;;;5032027;28;20466;-83
2023/08/21 04:59:41;;;;;;;111.07;3.20;;;25.60;51.60;;;;;;5032080;28;20812;-83
2023/08/21 05:02:06;;;;;;;111.47;3.43;;;25.60;52.00;;;;;;5032840;28;20503;-83
2023/08/21 05:04:33;;;;;;;111.80;3.50;;;25.50;52.70;;;;;;5031887;28;20892;-83
2023/08/21 05:07:00;;;;;;;111.87;3.67;;;25.70;52.30;;;;;;5013946;28;20709;-83
2023/08/21 05:09:25;;;;;;;112.97;4.17;;;25.60;52.10;;;;;;5031565;28;20426;-83
2023/08/21 05:11:51;;;;;;;111.37;3.43;;;25.70;51.90;;;;;;5031818;28;20423;-83
2023/08/21 05:14:19;;;;;;;111.67;3.60;;;25.80;51.60;;;;;;5032148;28;20182;-83
2023/08/21 05:16:45;;;;;;;112.10;3.93;;;25.80;51.90;;;;;;5031532;28;20239;-83
2023/08/21 05:19:10;;;;;;;112.87;3.73;;;25.80;52.20;;;;;;5031950;28;20828;-83
2023/08/21 05:21:36;;;;;;;112.90;3.93;;;25.80;51.80;;;;;;5014233;28;20430;-83
2023/08/21 05:24:02;;;;;;;111.97;3.83;;;26.10;50.50;;;;;;5031586;28;20175;-83
2023/08/21 05:26:27;;;;;;;112.17;4.03;;;26.20;50.00;;;;;;5031455;28;20312;-83
2023/08/21 05:28:53;;;;;;;113.40;3.90;;;26.30;49.40;;;;;;5031664;28;20229;-83
2023/08/21 05:31:18;;;;;;;113.70;4.50;;;26.20;50.20;;;;;;5014163;28;20176;-83
2023/08/21 05:33:45;;;;;;;111.60;3.40;;;26.10;50.20;;;;;;5031614;28;20204;-83
2023/08/21 05:36:10;;;;;;;112.47;4.00;;;26.20;50.00;;;;;;5030802;28;20200;-83
2023/08/21 05:38:36;;;;;;;111.83;3.53;;;26.30;49.60;;;;;;5031529;28;20410;-83
2023/08/21 05:41:02;;;;;;;112.57;3.70;;;26.40;49.50;;;;;;5031502;28;20184;-83
2023/08/21 05:43:27;;;;;;;120.80;5.07;;;26.40;49.30;;;;;;5031659;28;20172;-83
2023/08/21 05:45:53;;;;;;;112.90;4.17;;;26.60;49.10;;;;;;5030964;28;20676;-83
2023/08/21 05:48:18;;;;;;;111.80;3.63;;;26.80;48.00;;;;;;5031542;28;20670;-83
2023/08/21 05:50:44;;;;;;;111.50;3.27;;;26.80;47.80;;;;;;5031536;28;20278;-83
2023/08/21 05:53:09;;;;;;;112.80;3.70;;;26.80;48.40;;;;;;5013046;28;20209;-83
2023/08/21 05:55:38;;;;;;;113.17;4.30;;;26.70;49.10;;;;;;5004951;28;20217;-83
2023/08/21 05:58:04;;;;;;;111.70;3.60;;;26.80;48.80;;;;;;5006628;28;20173;-83
2023/08/21 06:00:29;;;;;;;112.27;3.80;;;26.70;47.50;;;;;;5011525;28;20416;-83
2023/08/21 06:02:55;;;;;;;113.10;4.47;;;26.20;48.70;;;;;;5007897;28;20661;-83
2023/08/21 06:05:20;;;;;;;112.67;3.77;;;25.90;50.30;;;;;;5010831;28;20216;-83
2023/08/21 06:07:46;;;;;;;111.77;3.30;;;25.90;51.40;;;;;;5006082;28;20280;-83
2023/08/21 06:10:12;;;;;;;111.97;3.77;;;25.80;51.10;;;;;;5011422;28;20180;-83
2023/08/21 06:12:40;;;;;;;115.37;4.43;;;25.90;50.90;;;;;;5004767;28;20189;-83
2023/08/21 06:15:08;;;;;;;111.97;3.60;;;25.70;51.80;;;;;;5011098;28;20430;-83
2023/08/21 06:17:33;;;;;;;112.50;3.90;;;25.80;50.90;;;;;;5010898;28;20471;-83
2023/08/21 06:19:59;;;;;;;112.70;4.27;;;25.60;52.20;;;;;;4994035;28;20424;-83
2023/08/21 06:22:25;;;;;;;111.60;3.53;;;25.40;53.70;;;;;;5013628;28;20177;-83
2023/08/21 06:24:50;;;;;;;111.77;3.73;;;25.60;54.10;;;;;;5014859;28;20201;-83
2023/08/21 06:27:16;;;;;;;111.40;3.43;;;26.20;52.60;;;;;;5015015;28;20648;-83
2023/08/21 06:29:41;;;;;;;111.87;3.90;;;26.70;50.50;;;;;;5014975;28;20189;-83
2023/08/21 06:32:07;;;;;;;111.73;3.63;;;27.00;49.70;;;;;;5014982;28;20204;-84
2023/08/21 06:34:33;;;;;;;112.20;3.40;;;26.90;47.60;;;;;;5014788;28;20209;-84
2023/08/21 06:36:58;;;;;;;112.03;3.80;;;27.10;47.80;;;;;;5014720;28;20247;-83
2023/08/21 06:39:25;;;;;;;111.97;3.53;;;27.50;46.00;;;;;;5015116;28;20184;-83
2023/08/21 06:41:51;;;;;;;111.60;3.60;;;27.40;45.60;;;;;;5015333;28;20469;-83
2023/08/21 06:44:16;;;;;;;111.60;3.90;;;27.10;47.80;;;;;;5015137;28;20815;-83
2023/08/21 06:46:42;;;;;;;110.87;3.07;;;27.30;46.40;;;;;;5014940;28;20192;-84
2023/08/21 06:49:08;;;;;;;112.20;3.70;;;27.20;46.60;;;;;;5014574;28;20227;-83
2023/08/21 06:51:33;;;;;;;112.80;3.93;;;27.20;45.90;;;;;;5014759;28;20184;-83
2023/08/21 06:53:59;;;;;;;110.77;3.40;;;27.30;46.60;;;;;;4996936;28;20649;-83
2023/08/21 06:56:24;;;;;;;111.70;3.47;;;27.40;47.00;;;;;;5014286;28;20267;-83
2023/08/21 06:58:50;;;;;;;111.67;3.90;;;27.80;45.70;;;;;;5014451;28;20177;-83
2023/08/21 07:01:15;;;;;;;111.00;3.50;;;27.20;45.80;;;;;;5014492;28;20188;-83
2023/08/21 07:03:41;;;;;;;112.10;4.00;;;27.00;47.10;;;;;;5014438;28;20177;-83
2023/08/21 07:06:07;;;;;;;111.40;3.80;;;27.30;46.50;;;;;;5013397;28;20217;-83
2023/08/21 07:08:33;;;;;;;113.17;4.20;;;27.80;46.10;;;;;;5014096;28;20535;-83
2023/08/21 07:11:03;;;;;;;112.07;4.23;;;27.90;44.40;;;;;;5011095;28;20182;-83
2023/08/21 07:13:29;;;;;;;111.37;3.87;;;27.50;44.50;;;;;;5012352;28;20497;-83
2023/08/21 07:15:55;;;;;;;110.90;3.20;;;27.80;44.10;;;;;;5013766;28;20806;-83
2023/08/21 07:18:20;;;;;;;111.80;3.70;;;27.90;44.20;;;;;;5014041;28;20203;-83
2023/08/21 07:20:46;;;;;;;111.17;3.83;;;27.20;46.00;;;;;;5014088;28;20183;-83
2023/08/21 07:23:12;;;;;;;110.40;3.20;;;27.00;47.70;;;;;;5014087;28;20177;-83
2023/08/21 07:25:37;;;;;;;111.00;3.50;;;27.20;46.90;;;;;;5013812;28;20556;-83
2023/08/21 07:28:03;;;;;;;111.37;3.63;;;27.90;45.50;;;;;;5013871;28;20188;-83
2023/08/21 07:30:29;;;;;;;111.97;3.83;;;28.10;43.20;;;;;;5014403;28;20636;-83
2023/08/21 07:32:55;;;;;;;110.70;3.47;;;28.00;43.40;;;;;;5013647;28;20423;-83
2023/08/21 07:35:20;;;;;;;112.00;3.80;;;27.50;45.60;;;;;;5013179;28;20806;-83
2023/08/21 07:37:46;;;;;;;112.87;3.70;;;27.70;45.10;;;;;;5011113;28;20207;-83
2023/08/21 07:40:12;;;;;;;111.60;4.20;;;28.30;43.10;;;;;;5013403;28;20181;-83
2023/08/21 07:42:38;;;;;;;112.43;3.97;;;28.40;41.70;;;;;;5013222;28;20589;-83
2023/08/21 07:45:04;;;;;;;110.10;3.20;;;28.50;42.40;;;;;;5013275;28;20617;-83
2023/08/21 07:47:30;;;;;;;111.33;3.90;;;28.10;43.40;;;;;;5013522;28;20172;-83
2023/08/21 07:49:57;;;;;;;111.27;3.80;;;28.20;43.30;;;;;;5012884;28;20887;-83
2023/08/21 07:52:23;;;;;;;111.60;3.50;;;28.70;40.60;;;;;;5013065;28;20857;-83
2023/08/21 07:54:52;;;;;;;111.00;3.87;;;29.00;40.00;;;;;;5012816;28;20475;-83
2023/08/21 07:57:18;;;;;;;110.57;3.60;;;28.90;40.50;;;;;;5011480;28;20239;-83
2023/08/21 07:59:43;;;;;;;110.53;3.83;;;28.90;39.90;;;;;;5012340;28;20451;-84
2023/08/21 08:02:11;;;;;;;111.20;3.90;;;28.50;41.20;;;;;;5013241;28;20189;-84
2023/08/21 08:04:37;;;;;;;112.60;4.13;;;28.10;44.10;;;;;;5012424;28;20563;-83
2023/08/21 08:07:02;;;;;;;109.73;3.23;;;28.00;43.60;;;;;;5013285;28;20466;-83
2023/08/21 08:09:28;;;;;;;109.80;3.30;;;27.80;43.60;;;;;;5013268;28;20199;-83
2023/08/21 08:11:53;;;;;;;110.20;3.40;;;28.60;42.60;;;;;;5013278;28;20181;-83
2023/08/21 08:14:19;;;;;;;110.10;3.70;;;29.10;40.60;;;;;;5013116;28;20751;-84
2023/08/21 08:16:44;;;;;;;113.23;4.20;;;29.30;39.90;;;;;;5012946;28;20209;-83
2023/08/21 08:19:10;;;;;;;110.07;3.67;;;29.40;38.80;;;;;;5013500;28;20180;-84
2023/08/21 08:21:36;;;;;;;109.47;3.30;;;29.30;38.90;;;;;;5013206;28;20520;-84
2023/08/21 08:24:02;;;;;;;109.57;3.17;;;29.10;40.40;;;;;;5012914;28;20268;-83
2023/08/21 08:26:27;;;;;;;111.10;3.70;;;29.10;40.70;;;;;;5012562;28;20197;-84
2023/08/21 08:28:53;;;;;;;110.57;3.60;;;29.50;40.30;;;;;;5012773;28;20543;-84
2023/08/21 08:31:19;;;;;;;110.77;4.57;;;29.70;37.40;;;;;;5013062;28;20204;-84
2023/08/21 08:33:45;;;;;;;109.57;3.30;;;29.60;38.10;;;;;;4994948;28;20180;-83
2023/08/21 08:36:11;;;;;;;109.30;3.10;;;30.00;37.80;;;;;;5012186;28;20456;-84
2023/08/21 08:38:37;;;;;;;112.57;3.27;;;30.20;37.50;;;;;;5012698;28;20181;-84
2023/08/21 08:41:11;;;;;;;108.60;3.17;;;29.50;37.50;;;;;;5012731;28;20173;-84
2023/08/21 08:43:40;;;;;;;108.97;3.27;;;29.20;38.20;;;;;;5012260;28;20407;-83
2023/08/21 08:46:07;;;;;;;108.70;3.20;;;28.90;39.50;;;;;;5011978;28;20491;-84
2023/08/21 08:48:34;;;;;;;109.37;3.47;;;29.30;40.80;;;;;;5012378;28;20416;-84
2023/08/21 08:51:01;;;;;;;109.07;3.30;;;29.90;38.30;;;;;;5012606;28;20424;-84
2023/08/21 08:53:28;;;;;;;109.70;3.33;;;29.40;37.90;;;;;;5012511;28;20963;-84
2023/08/21 08:55:53;;;;;;;109.87;3.90;;;29.20;38.90;;;;;;5011883;28;20983;-83
2023/08/21 08:58:19;;;;;;;108.77;3.43;;;29.10;39.90;;;;;;5012421;28;20451;-84
2023/08/21 09:00:45;;;;;;;109.60;3.80;;;28.90;40.60;;;;;;5012342;28;20640;-84
2023/08/21 09:03:12;;;;;;;109.57;3.90;;;28.90;40.00;;;;;;4994788;28;20546;-83
2023/08/21 09:05:40;;;;;;;108.10;3.17;;;29.10;40.20;;;;;;5011564;28;20558;-84
2023/08/21 09:08:11;;;;;;;111.00;4.10;;;29.00;40.20;;;;;;5012223;28;20474;-84
2023/08/21 09:10:38;;;;;;;108.97;3.60;;;29.20;39.60;;;;;;5012106;28;20411;-84
2023/08/21 09:13:19;;;;;;;109.10;3.63;;;29.30;39.20;;;;;;5012134;28;20927;-84
2023/08/21 09:15:52;;;;;;;114.27;4.33;;;29.80;38.30;;;;;;5011640;28;20462;-84
2023/08/21 09:18:18;;;;;;;107.80;3.00;;;30.20;39.00;;;;;;5012244;28;20948;-84
2023/08/21 09:20:44;;;;;;;109.30;3.40;;;30.40;36.00;;;;;;5012265;28;20416;-84
2023/08/21 09:23:14;;;;;;;108.13;3.27;;;30.60;35.90;;;;;;5012103;28;20201;-84
2023/08/21 09:25:40;;;;;;;110.00;3.23;;;30.60;36.30;;;;;;5011619;28;20443;-84
2023/08/21 09:28:07;;;;;;;108.43;3.27;;;31.10;36.00;;;;;;5012346;28;20412;-84
2023/08/21 09:30:46;;;;;;;107.70;2.90;;;31.50;33.90;;;;;;5011913;28;20412;-84
2023/08/21 09:33:12;;;;;;;108.00;3.30;;;31.90;33.50;;;;;;5012226;28;20420;-84
2023/08/21 09:35:37;;;;;;;108.83;3.33;;;31.40;32.80;;;;;;5011318;28;20850;-83
2023/08/21 09:38:04;;;;;;;109.17;3.30;;;31.70;34.10;;;;;;4994380;28;20223;-84
2023/08/21 09:40:30;;;;;;;107.67;3.17;;;31.90;33.40;;;;;;5011926;28;20260;-84
2023/08/21 09:42:56;;;;;;;108.20;3.10;;;32.00;31.90;;;;;;4994207;28;20510;-84
2023/08/21 09:45:23;;;;;;;107.80;3.20;;;31.60;32.10;;;;;;5011671;28;20193;-84
2023/08/21 09:47:51;;;;;;;107.40;3.20;;;31.90;31.50;;;;;;5012233;28;20408;-84
2023/08/21 09:50:18;;;;;;;108.07;3.50;;;32.20;31.90;;;;;;5011777;28;20503;-83
2023/08/21 09:52:45;;;;;;;107.70;3.23;;;32.10;31.30;;;;;;5011861;28;20419;-83
2023/08/21 09:55:13;;;;;;;107.40;3.00;;;32.30;31.70;;;;;;5011932;28;20529;-84
2023/08/21 09:57:41;;;;;;;108.67;3.20;;;32.10;31.90;;;;;;5015618;28;20463;-84
2023/08/21 10:00:20;;;;;;;107.67;3.57;;;31.40;32.70;;;;;;5015788;28;20754;-84
2023/08/21 10:02:51;;;;;;;107.63;3.10;;;31.80;32.80;;;;;;5015605;28;20412;-84
2023/08/21 10:05:17;;;;;;;107.53;3.03;;;32.00;32.50;;;;;;5014853;28;20448;-84
2023/08/21 10:07:46;;;;;;;108.40;3.80;;;32.20;31.40;;;;;;5015486;28;20418;-84
2023/08/21 10:10:12;;;;;;;106.77;2.87;;;32.10;32.00;;;;;;4997842;28;20463;-84
2023/08/21 10:12:38;;;;;;;106.67;2.90;;;31.70;31.80;;;;;;5015439;28;20420;-84
2023/08/21 10:15:04;;;;;;;107.23;3.27;;;31.90;31.30;;;;;;5015021;28;20200;-83
2023/08/21 10:17:31;;;;;;;106.73;3.10;;;31.40;32.60;;;;;;5015386;28;20200;-84
2023/08/21 10:20:05;;;;;;;106.70;3.10;;;31.90;32.80;;;;;;5015378;28;20439;-84
2023/08/21 10:22:48;;;;;;;106.37;2.93;;;32.60;31.20;;;;;;5015371;28;20403;-84
2023/08/21 10:25:23;;;;;;;106.97;3.20;;;32.90;30.50;;;;;;5015002;28;20927;-84
2023/08/21 10:28:01;;;;;;;107.17;3.10;;;33.30;29.30;;;;;;5015410;28;20840;-84
2023/08/21 10:30:28;;;;;;;114.07;3.70;;;33.60;29.90;;;;;;5015572;28;20458;-84
2023/08/21 10:32:55;;;;;;;106.70;3.20;;;33.20;29.60;;;;;;5015061;28;20772;-84
2023/08/21 10:35:23;;;;;;;106.37;2.90;;;33.50;29.30;;;;;;5014493;28;20424;-84
2023/08/21 10:38:11;;;;;;;106.70;3.43;;;33.60;28.60;;;;;;5015489;28;20423;-84
2023/08/21 10:40:38;;;;;;;107.27;3.30;;;33.60;27.50;;;;;;5014895;28;20408;-84
2023/08/21 10:43:04;;;;;;;106.73;3.13;;;33.80;27.60;;;;;;5014938;28;20411;-84
2023/08/21 10:45:30;;;;;;;110.80;3.00;;;32.90;29.60;;;;;;5014506;28;20474;-84
2023/08/21 10:47:58;;;;;;;105.90;2.67;;;33.50;29.40;;;;;;5016084;28;20400;-84
2023/08/21 10:50:23;;;;;;;108.47;3.20;;;33.80;27.60;;;;;;5014742;28;20760;-84
2023/08/21 10:52:52;;;;;;;106.30;3.03;;;33.80;27.60;;;;;;5014676;28;20414;-84
2023/08/21 10:55:18;;;;;;;110.93;3.80;;;33.80;26.70;;;;;;4996609;28;20205;-84
2023/08/21 10:57:47;;;;;;;107.17;3.30;;;33.70;27.90;;;;;;5008253;28;20460;-84
2023/08/21 11:00:15;;;;;;;107.57;3.37;;;33.90;27.60;;;;;;4995013;28;20452;-84
2023/08/21 11:02:43;;;;;;;106.00;2.77;;;34.10;27.40;;;;;;4994851;28;20401;-84
2023/08/21 11:05:10;;;;;;;106.20;3.27;;;34.00;26.70;;;;;;4994173;28;20453;-84
2023/08/21 11:07:39;;;;;;;105.90;2.80;;;33.70;27.50;;;;;;4976749;28;20421;-84
2023/08/21 11:10:11;;;;;;;107.17;2.87;;;32.90;28.70;;;;;;4995771;28;20412;-84
2023/08/21 11:12:36;;;;;;;105.47;2.73;;;32.70;29.00;;;;;;4995059;28;20408;-85
2023/08/21 11:15:04;;;;;;;105.37;2.70;;;32.90;27.70;;;;;;4994508;28;20811;-84
2023/08/21 11:17:29;;;;;;;105.73;3.00;;;32.80;28.50;;;;;;4994803;28;20205;-84
2023/08/21 11:19:56;;;;;;;105.40;2.70;;;33.20;28.60;;;;;;4994630;28;20911;-84
2023/08/21 11:22:29;;;;;;;105.50;3.03;;;34.00;26.70;;;;;;4994466;28;20170;-84
2023/08/21 11:24:55;;;;;;;105.30;2.83;;;34.50;27.10;;;;;;4994232;28;20800;-84
2023/08/21 11:27:21;;;;;;;106.23;3.20;;;34.60;26.40;;;;;;4994466;28;20409;-84
2023/08/21 11:29:50;;;;;;;104.93;2.70;;;34.50;26.20;;;;;;4994631;28;20169;-84
2023/08/21 11:32:21;;;;;;;105.80;3.23;;;35.10;26.00;;;;;;4994406;28;20420;-84
2023/08/21 11:34:55;;;;;;;105.80;2.97;;;35.60;25.50;;;;;;4993693;28;20440;-84
2023/08/21 11:37:26;;;;;;;105.67;2.70;;;36.00;24.10;;;;;;4994249;28;20503;-85
2023/08/21 11:39:57;;;;;;;105.07;2.90;;;36.50;23.90;;;;;;4977038;28;20903;-85
2023/08/21 11:42:30;;;;;;;104.80;2.60;;;35.60;22.40;;;;;;4994213;28;20798;-85
2023/08/21 11:44:56;;;;;;;104.67;2.63;;;35.70;23.50;;;;;;4993795;28;20889;-85
2023/08/21 11:47:23;;;;;;;104.13;2.53;;;36.10;22.30;;;;;;4976520;28;20428;-84
2023/08/21 11:49:50;;;;;;;105.57;2.93;;;36.60;24.60;;;;;;4994026;28;20773;-85
2023/08/21 11:52:26;;;;;;;104.57;2.80;;;37.30;22.60;;;;;;4994050;28;20401;-85
2023/08/21 11:54:53;;;;;;;104.43;2.80;;;37.40;21.90;;;;;;4993730;28;20487;-85
2023/08/21 11:57:20;;;;;;;104.17;2.83;;;37.90;21.00;;;;;;4993864;28;20487;-85
2023/08/21 11:59:53;;;;;;;111.70;3.07;;;37.60;20.60;;;;;;4994201;28;20581;-85
2023/08/21 12:02:26;;;;;;;103.33;2.67;;;38.50;19.90;;;;;;4976438;28;20424;-85
2023/08/21 12:05:01;;;;;;;102.83;2.73;;;39.00;19.40;;;;;;4993130;28;20449;-85
2023/08/21 12:07:26;;;;;;;102.90;2.70;;;39.60;18.90;;;;;;4993896;28;20412;-85
2023/08/21 12:09:52;;;;;;;102.80;2.80;;;39.30;18.30;;;;;;4993679;28;20424;-85
2023/08/21 12:12:17;;;;;;;103.07;2.70;;;37.60;19.50;;;;;;4993585;28;20177;-85
2023/08/21 12:14:43;;;;;;;104.20;3.17;;;36.30;21.10;;;;;;4993378;28;20194;-85
2023/08/21 12:17:09;;;;;;;102.17;2.60;;;36.30;21.30;;;;;;4993438;28;20201;-85
2023/08/21 12:19:35;;;;;;;101.90;2.63;;;36.80;21.30;;;;;;4992657;28;20802;-85
2023/08/21 12:22:00;;;;;;;101.57;2.50;;;37.10;21.00;;;;;;4993980;28;20213;-85
2023/08/21 12:24:26;;;;;;;101.27;2.60;;;38.50;18.60;;;;;;4993199;28;20177;-85
2023/08/21 12:26:52;;;;;;;101.07;2.53;;;38.60;19.50;;;;;;4993082;28;20304;-85
2023/08/21 12:29:17;;;;;;;101.27;2.40;;;39.10;18.70;;;;;;4993367;28;20181;-85
2023/08/21 12:31:43;;;;;;;101.40;2.50;;;38.80;19.00;;;;;;4993149;28;20172;-85
2023/08/21 12:34:08;;;;;;;101.17;2.53;;;37.10;19.10;;;;;;4993206;28;20248;-85